Mariner Of The Seas — C6FV9 — position and weather

sailwx.info

Track history (hours):
 
Tides and Currents Weather Stations Pressure Air Temp Water Temp Dewpoint Dewpoint Depression Visibility Wind Speed Wind Dir Waves Ship Positions

Mariner Of The Seas

Operator: Royal Caribbean Cruises Ltd

Last reported at 2017-Jan-19 18:31 UTC. Time now 2017-Jan-19 21:21 UTC.
Position N 01°28' E 103°03'.

Type: Passenger vessel. MMSI: 311493000.

Date/timePositionNaut miles runAvg speedWind from/ knotsBaromVisibWave heightAir tempDewpointWater temp
2017-Jan-19 18:31N 01°28' E 103°03'1516.0
2017-Jan-19 17:33N 01°36' E 102°50'1616.0
2017-Jan-19 16:33N 01°44' E 102°36'1616.1
2017-Jan-19 15:33N 01°51' E 102°22'  
2017-Jan-15 09:12N 05°25' E 100°21'247 6.1
2017-Jan-13 16:33N 01°52' E 102°26'1514.5
2017-Jan-13 15:30N 01°45' E 102°40'7813.1
2017-Jan-13 09:29N 01°14' E 103°52'2 1.7
2017-Jan-13 08:23N 01°16' E 103°52'0 0.0
2017-Jan-13 07:29N 01°16' E 103°52'0 0.0
2017-Jan-13 05:29N 01°16' E 103°52'0 0.0
2017-Jan-13 04:23N 01°16' E 103°52'0 0.0
2017-Jan-13 03:29N 01°16' E 103°52'0 0.0
2017-Jan-13 02:29N 01°16' E 103°52'0 0.0
2017-Jan-13 01:17N 01°16' E 103°52'0 0.0
2017-Jan-13 00:17N 01°16' E 103°52'0 0.0
2017-Jan-12 23:32N 01°16' E 103°52'5 5.5
2017-Jan-12 22:32N 01°11' E 103°50'5011.9
2017-Jan-12 18:22N 01°28' E 103°03'1114.1
2017-Jan-12 17:33N 01°34' E 102°53'1514.4
2017-Jan-12 16:32N 01°42' E 102°41'1414.2
2017-Jan-12 15:33N 01°47' E 102°28'2014.0
2017-Jan-12 14:06N 01°56' E 102°10'814.5
2017-Jan-12 13:33N 02°02' E 102°04'1716.5
2017-Jan-12 12:33N 02°12' E 101°51'  
Track history (hours):
 
Tides and Currents Weather Stations Pressure Air Temp Water Temp Dewpoint Dewpoint Depression Visibility Wind Speed Wind Dir Waves Ship Positions

Mariner Of The Seas

Operator: Royal Caribbean Cruises Ltd

Last reported at 2017-Jan-19 18:31 UTC. Time now 2017-Jan-19 21:21 UTC.
Position N 01°28' E 103°03'.

Type: Passenger vessel. MMSI: 311493000.

Date/timePositionNaut miles runAvg speedWind from/ knotsBaromVisibWave heightAir tempDewpointWater temp
2017-Jan-19 18:31N 01°28' E 103°03'1516.0
2017-Jan-19 17:33N 01°36' E 102°50'1616.0
2017-Jan-19 16:33N 01°44' E 102°36'1616.1
2017-Jan-19 15:33N 01°51' E 102°22'  
2017-Jan-15 09:12N 05°25' E 100°21'247 6.1
2017-Jan-13 16:33N 01°52' E 102°26'1514.5
2017-Jan-13 15:30N 01°45' E 102°40'7813.1
2017-Jan-13 09:29N 01°14' E 103°52'2 1.7
2017-Jan-13 08:23N 01°16' E 103°52'0 0.0
2017-Jan-13 07:29N 01°16' E 103°52'0 0.0
2017-Jan-13 05:29N 01°16' E 103°52'0 0.0
2017-Jan-13 04:23N 01°16' E 103°52'0 0.0
2017-Jan-13 03:29N 01°16' E 103°52'0 0.0
2017-Jan-13 02:29N 01°16' E 103°52'0 0.0
2017-Jan-13 01:17N 01°16' E 103°52'0 0.0
2017-Jan-13 00:17N 01°16' E 103°52'0 0.0
2017-Jan-12 23:32N 01°16' E 103°52'5 5.5
2017-Jan-12 22:32N 01°11' E 103°50'5011.9
2017-Jan-12 18:22N 01°28' E 103°03'1114.1
2017-Jan-12 17:33N 01°34' E 102°53'1514.4
2017-Jan-12 16:32N 01°42' E 102°41'1414.2
2017-Jan-12 15:33N 01°47' E 102°28'2014.0
2017-Jan-12 14:06N 01°56' E 102°10'814.5
2017-Jan-12 13:33N 02°02' E 102°04'1716.5
2017-Jan-12 12:33N 02°12' E 101°51'  

Dump ship's entire track history